Terminal Aerodrome Forecast
Issued by NWS

Home | Current Version | Previous Version | Text Only | Print | Product List | Glossary On
Versions: 1 2 3 4 5 6 7 8 9 10 11 12 13 14 15 16
000
FTUS41 KCAR 052320
TAFPQI
TAF
KPQI 052320Z 0600/0624 VRB03KT P6SM FEW250
     FM061400 25007KT P6SM SKC
     FM061600 25010G18KT P6SM SCT030
     FM062200 23006KT P6SM SCT030
      AMD LTD TO CLD VIS AND WIND=

USA.gov is the U.S. government's official web portal to all federal, state and local government web resources and services.